| time (UTC) | temp F | wind direction | speed MPH | gust MPH | rain 1hr in | rain 24hr in | rain mn in | humidity % | barometer mb |
| 20260502232828 | 70 | 333 | 0.0 | 3.0 | 0.00 | 0.02 | 0.02 | 62 | 1012.3 |
| 20260502232336 | 70 | 344 | 1.0 | 3.0 | 0.00 | 0.02 | 0.02 | 63 | 1012.4 |
| 20260502231818 | 69 | 352 | 0.0 | 1.0 | 0.00 | 0.02 | 0.02 | 64 | 1012.4 |
| 20260502231318 | 69 | 338 | 0.0 | 1.0 | 0.00 | 0.02 | 0.02 | 64 | 1012.4 |
| 20260502230821 | 69 | 39 | 0.0 | 1.0 | 0.00 | 0.02 | 0.02 | 63 | 1012.5 |
| 20260502230328 | 68 | 112 | 0.0 | 2.0 | 0.00 | 0.02 | 0.02 | 66 | 1012.5 |
| 20260502225831 | 68 | 29 | 0.0 | 2.0 | 0.00 | 0.02 | 0.02 | 66 | 1012.6 |
| 20260502225311 | 68 | 36 | 0.0 | 4.0 | 0.00 | 0.02 | 0.02 | 65 | 1012.7 |
| 20260502224821 | 68 | 120 | 0.0 | 4.0 | 0.00 | 0.02 | 0.02 | 63 | 1012.8 |
| 20260502224320 | 69 | 129 | 0.0 | 2.0 | 0.00 | 0.02 | 0.02 | 63 | 1012.9 |
| 20260502223829 | 69 | 300 | 0.0 | 0.0 | 0.00 | 0.02 | 0.02 | 64 | 1012.9 |
| 20260502223311 | 68 | 302 | 0.0 | 3.0 | 0.00 | 0.02 | 0.02 | 65 | 1012.9 |
| 20260502222813 | 67 | 334 | 0.0 | 3.0 | 0.00 | 0.02 | 0.02 | 65 | 1013.0 |
| 20260502222319 | 68 | 42 | 0.0 | 4.0 | 0.00 | 0.02 | 0.02 | 64 | 1013.1 |
| 20260502221828 | 68 | 335 | 2.0 | 4.0 | 0.00 | 0.02 | 0.02 | 62 | 1013.3 |
| 20260502221334 | 70 | 49 | 0.0 | 0.0 | 0.00 | 0.02 | 0.02 | 63 | 1013.3 |
| 20260502220815 | 68 | 161 | 0.0 | 0.0 | 0.00 | 0.02 | 0.02 | 64 | 1013.3 |
| 20260502220314 | 67 | 203 | 0.0 | 5.0 | 0.00 | 0.02 | 0.02 | 66 | 1013.3 |
| 20260502215824 | 66 | 182 | 1.0 | 5.0 | 0.00 | 0.02 | 0.02 | 66 | 1013.4 |
| 20260502215324 | 67 | 159 | 2.0 | 4.0 | 0.00 | 0.02 | 0.02 | 66 | 1013.5 |
| 20260502214834 | 67 | 167 | 0.0 | 0.0 | 0.00 | 0.02 | 0.02 | 67 | 1013.7 |
| 20260502214314 | 66 | 6 | 0.0 | 5.0 | 0.00 | 0.02 | 0.02 | 67 | 1013.7 |
| 20260502213817 | 67 | 4 | 1.0 | 5.0 | 0.00 | 0.02 | 0.02 | 66 | 1013.7 |
| 20260502213325 | 67 | 221 | 0.0 | 3.0 | 0.00 | 0.02 | 0.02 | 67 | 1013.8 |
| 20260502212827 | 66 | 207 | 1.0 | 3.0 | 0.00 | 0.02 | 0.02 | 66 | 1013.9 |
| 20260502212328 | 67 | 103 | 0.0 | 1.0 | 0.00 | 0.02 | 0.02 | 67 | 1013.9 |
| 20260502211837 | 67 | 75 | 0.0 | 0.0 | 0.00 | 0.02 | 0.02 | 67 | 1014.0 |
| 20260502211317 | 65 | 285 | 0.0 | 0.0 | 0.00 | 0.02 | 0.02 | 70 | 1014.1 |
| 20260502210820 | 65 | 240 | 0.0 | 5.0 | 0.00 | 0.02 | 0.02 | 71 | 1014.2 |
| 20260502210327 | 63 | 182 | 1.0 | 7.0 | 0.00 | 0.02 | 0.02 | 73 | 1014.2 |
| 20260502205830 | 62 | 197 | 2.0 | 7.0 | 0.00 | 0.02 | 0.02 | 73 | 1014.2 |
| 20260502205330 | 62 | 32 | 0.0 | 3.0 | 0.00 | 0.02 | 0.02 | 74 | 1014.3 |
| 20260502204813 | 62 | 346 | 0.0 | 5.0 | 0.00 | 0.02 | 0.02 | 74 | 1014.4 |
| 20260502204320 | 61 | 335 | 2.0 | 8.0 | 0.00 | 0.02 | 0.02 | 75 | 1014.5 |
| 20260502203337 | 61 | 329 | 1.0 | 5.0 | 0.00 | 0.02 | 0.02 | 74 | 1014.7 |
| 20260502202820 | 62 | 309 | 0.0 | 4.0 | 0.00 | 0.02 | 0.02 | 74 | 1014.8 |
| 20260502202320 | 63 | 345 | 1.0 | 4.0 | 0.00 | 0.02 | 0.02 | 71 | 1014.8 |
| 20260502201822 | 62 | 162 | 0.0 | 2.0 | 0.00 | 0.02 | 0.02 | 74 | 1014.8 |
| 20260502201329 | 61 | 321 | 0.0 | 1.0 | 0.00 | 0.02 | 0.02 | 75 | 1014.9 |
| 20260502200812 | 59 | 292 | 0.0 | 3.0 | 0.00 | 0.02 | 0.02 | 78 | 1014.9 |
| 20260502200312 | 59 | 333 | 0.0 | 3.0 | 0.00 | 0.02 | 0.02 | 78 | 1015.0 |
| 20260502195822 | 58 | 229 | 0.0 | 3.0 | 0.00 | 0.02 | 0.02 | 81 | 1015.0 |
| 20260502195322 | 58 | 1 | 0.0 | 6.0 | 0.00 | 0.02 | 0.02 | 81 | 1015.0 |
| 20260502194825 | 58 | 295 | 1.0 | 6.0 | 0.00 | 0.02 | 0.02 | 80 | 1015.0 |
| 20260502194331 | 58 | 189 | 0.0 | 1.0 | 0.00 | 0.02 | 0.02 | 81 | 1015.1 |
| 20260502193814 | 56 | 147 | 0.0 | 2.0 | 0.00 | 0.02 | 0.02 | 83 | 1015.2 |
| 20260502193314 | 56 | 30 | 0.0 | 6.0 | 0.00 | 0.02 | 0.02 | 84 | 1015.0 |
| 20260502192824 | 56 | 333 | 2.0 | 6.0 | 0.00 | 0.02 | 0.02 | 83 | 1015.2 |
| 20260502192324 | 56 | 13 | 0.0 | 6.0 | 0.00 | 0.02 | 0.02 | 82 | 1015.2 |
| 20260502191835 | 57 | 315 | 2.0 | 6.0 | 0.00 | 0.02 | 0.02 | 82 | 1015.3 |
| 20260502191318 | 56 | 252 | 0.0 | 0.0 | 0.00 | 0.02 | 0.02 | 83 | 1015.6 |
| 20260502190821 | 56 | 311 | 0.0 | 0.0 | 0.00 | 0.02 | 0.02 | 84 | 1015.8 |
| 20260502190321 | 55 | 312 | 0.0 | 1.0 | 0.00 | 0.02 | 0.02 | 84 | 1015.8 |
| 20260502185831 | 55 | 266 | 0.0 | 5.0 | 0.00 | 0.02 | 0.02 | 85 | 1016.0 |
| 20260502185318 | 54 | 322 | 0.0 | 5.0 | 0.00 | 0.02 | 0.02 | 86 | 1015.8 |
| 20260502184821 | 54 | 323 | 1.0 | 5.0 | 0.00 | 0.02 | 0.02 | 86 | 1015.9 |
| 20260502184328 | 54 | 321 | 0.0 | 4.0 | 0.00 | 0.02 | 0.02 | 87 | 1015.8 |
| 20260502183831 | 53 | 343 | 1.0 | 8.0 | 0.00 | 0.02 | 0.02 | 88 | 1015.8 |
| 20260502183330 | 53 | 295 | 1.0 | 8.0 | 0.00 | 0.02 | 0.02 | 88 | 1015.7 |
| 20260502182320 | 52 | 345 | 0.0 | 4.0 | 0.00 | 0.02 | 0.02 | 89 | 1015.7 |
| 20260502181823 | 52 | 342 | 0.0 | 6.0 | 0.00 | 0.02 | 0.02 | 89 | 1015.8 |
| 20260502181330 | 52 | 324 | 3.0 | 6.0 | 0.00 | 0.02 | 0.02 | 89 | 1015.9 |
| 20260502180813 | 52 | 12 | 0.0 | 0.0 | 0.00 | 0.02 | 0.02 | 89 | 1016.0 |
| 20260502180313 | 52 | 333 | 0.0 | 5.0 | 0.00 | 0.02 | 0.02 | 90 | 1016.0 |
| 20260502170318 | 51 | 346 | 0.0 | 0.0 | 0.00 | 0.02 | 0.02 | 90 | 1016.1 |
| 20260502164311 | 51 | 310 | 1.0 | 5.0 | 0.00 | 0.02 | 0.02 | 91 | 1016.3 |
| 20260502163821 | 51 | 352 | 1.0 | 5.0 | 0.00 | 0.02 | 0.02 | 91 | 1016.3 |
| 20260502163321 | 51 | 321 | 0.0 | 5.0 | 0.00 | 0.02 | 0.02 | 91 | 1016.2 |
| 20260502162831 | 51 | 43 | 0.0 | 4.0 | 0.00 | 0.02 | 0.02 | 91 | 1016.3 |
| 20260502162331 | 50 | 84 | 0.0 | 6.0 | 0.00 | 0.02 | 0.02 | 91 | 1016.4 |
| 20260502161813 | 51 | 317 | 0.0 | 3.0 | 0.00 | 0.02 | 0.02 | 91 | 1016.3 |
| 20260502161319 | 50 | 347 | 0.0 | 5.0 | 0.00 | 0.02 | 0.02 | 91 | 1016.3 |
| 20260502160821 | 50 | 339 | 0.0 | 6.0 | 0.00 | 0.02 | 0.02 | 91 | 1016.5 |
| 20260502160321 | 50 | 355 | 1.0 | 4.0 | 0.00 | 0.02 | 0.02 | 91 | 1016.4 |
| 20260502152329 | 50 | 335 | 3.0 | 7.0 | 0.00 | 0.02 | 0.02 | 90 | 1016.3 |
| 20260502151839 | 50 | 111 | 0.0 | 2.0 | 0.00 | 0.02 | 0.02 | 91 | 1016.2 |
| 20260502151318 | 50 | 79 | 0.0 | 1.0 | 0.00 | 0.02 | 0.02 | 90 | 1016.2 |
| 20260502150820 | 50 | 14 | 0.0 | 3.0 | 0.00 | 0.02 | 0.02 | 91 | 1016.3 |
| 20260502150327 | 50 | 321 | 0.0 | 0.0 | 0.00 | 0.02 | 0.02 | 91 | 1016.3 |
| 20260502130320 | 49 | 354 | 0.0 | 0.0 | 0.00 | 0.02 | 0.02 | 91 | 1016.2 |
| 20260502123319 | 49 | 1 | 0.0 | 1.0 | 0.00 | 0.02 | 0.02 | 92 | 1016.1 |
| 20260502122829 | 48 | 300 | 0.0 | 0.0 | 0.00 | 0.02 | 0.02 | 92 | 1016.1 |
| 20260502122328 | 48 | 306 | 0.0 | 0.0 | 0.00 | 0.02 | 0.02 | 93 | 1016.1 |
| 20260502121830 | 48 | 306 | 0.0 | 0.0 | 0.00 | 0.02 | 0.02 | 92 | 1016.1 |
| 20260502121337 | 48 | 306 | 0.0 | 0.0 | 0.00 | 0.02 | 0.02 | 92 | 1016.1 |
| 20260502120820 | 48 | 306 | 0.0 | 0.0 | 0.00 | 0.02 | 0.02 | 92 | 1016.0 |
| 20260502120319 | 48 | 306 | 0.0 | 0.0 | 0.00 | 0.02 | 0.02 | 92 | 1015.9 |
| 20260502115829 | 48 | 306 | 0.0 | 1.0 | 0.00 | 0.02 | 0.02 | 92 | 1015.9 |
| 20260502115329 | 48 | 347 | 0.0 | 1.0 | 0.00 | 0.02 | 0.02 | 92 | 1015.9 |
| 20260502114838 | 48 | 302 | 0.0 | 1.0 | 0.00 | 0.02 | 0.02 | 92 | 1016.0 |
| 20260502114318 | 48 | 307 | 0.0 | 1.0 | 0.00 | 0.02 | 0.02 | 93 | 1016.1 |
| 20260502113820 | 48 | 334 | 0.0 | 1.0 | 0.00 | 0.02 | 0.02 | 93 | 1016.0 |
| 20260502113320 | 49 | 326 | 0.0 | 0.0 | 0.00 | 0.02 | 0.02 | 93 | 1016.1 |
| 20260502112829 | 49 | 296 | 0.0 | 0.0 | 0.00 | 0.02 | 0.02 | 93 | 1016.1 |
| 20260502112327 | 49 | 324 | 0.0 | 1.0 | 0.00 | 0.02 | 0.02 | 93 | 1016.3 |
| 20260502111837 | 49 | 340 | 0.0 | 1.0 | 0.00 | 0.02 | 0.02 | 93 | 1016.3 |
| 20260502111316 | 49 | 202 | 0.0 | 0.0 | 0.00 | 0.02 | 0.02 | 93 | 1016.4 |
| 20260502110818 | 49 | 309 | 0.0 | 1.0 | 0.01 | 0.02 | 0.02 | 93 | 1016.1 |
| 20260502110326 | 49 | 3 | 0.0 | 1.0 | 0.01 | 0.02 | 0.02 | 93 | 1016.0 |
| 20260502105829 | 49 | 13 | 0.0 | 1.0 | 0.01 | 0.02 | 0.02 | 93 | 1016.0 |
| 20260502105328 | 49 | 325 | 0.0 | 0.0 | 0.01 | 0.02 | 0.02 | 93 | 1016.1 |
| 20260502104838 | 49 | 71 | 0.0 | 0.0 | 0.01 | 0.02 | 0.02 | 93 | 1016.0 |
| 20260502104314 | 49 | 71 | 0.0 | 0.0 | 0.01 | 0.02 | 0.02 | 93 | 1016.1 |
| 20260502103830 | 49 | 108 | 0.0 | 1.0 | 0.01 | 0.02 | 0.02 | 92 | 1016.3 |
| 20260502103335 | 49 | 83 | 0.0 | 1.0 | 0.01 | 0.02 | 0.02 | 92 | 1016.2 |
| 20260502102817 | 49 | 316 | 0.0 | 0.0 | 0.01 | 0.02 | 0.02 | 92 | 1016.2 |
| 20260502102322 | 49 | 39 | 0.0 | 0.0 | 0.01 | 0.02 | 0.02 | 92 | 1016.1 |
| 20260502101831 | 49 | 233 | 0.0 | 1.0 | 0.01 | 0.02 | 0.02 | 93 | 1016.1 |
| 20260502101336 | 49 | 325 | 0.0 | 1.0 | 0.01 | 0.02 | 0.02 | 93 | 1016.0 |
| 20260502100818 | 49 | 348 | 0.0 | 1.0 | 0.00 | 0.01 | 0.01 | 93 | 1016.0 |
| 20260502100317 | 50 | 352 | 0.0 | 0.0 | 0.00 | 0.01 | 0.01 | 93 | 1015.8 |
| 20260502091342 | 51 | 132 | 0.0 | 1.0 | 0.01 | 0.01 | 0.01 | 92 | 1017.0 |
| 20260502090840 | 51 | 146 | 0.0 | 0.0 | 0.01 | 0.01 | 0.01 | 92 | 1017.1 |
| 20260502090347 | 51 | 146 | 0.0 | 0.0 | 0.01 | 0.01 | 0.01 | 92 | 1017.3 |
| 20260502071323 | 54 | 140 | 0.0 | 0.0 | 0.00 | 0.00 | 0.00 | 84 | 1017.0 |
| 20260502070833 | 54 | 140 | 0.0 | 0.0 | 0.00 | 0.00 | 0.00 | 84 | 1016.9 |
| 20260502070359 | 54 | 140 | 0.0 | 0.0 | 0.00 | 0.00 | 0.00 | 84 | 1016.9 |
| 20260502065841 | 54 | 140 | 0.0 | 0.0 | 0.00 | 0.00 | 0.00 | 84 | 1016.8 |
| 20260502065348 | 54 | 140 | 0.0 | 0.0 | 0.00 | 0.00 | 0.00 | 84 | 1016.9 |
| 20260502064837 | 54 | 140 | 0.0 | 0.0 | 0.00 | 0.00 | 0.00 | 84 | 1016.9 |
| 20260502064351 | 54 | 140 | 0.0 | 0.0 | 0.00 | 0.00 | 0.00 | 84 | 1017.0 |
| 20260502063840 | 54 | 140 | 0.0 | 0.0 | 0.00 | 0.00 | 0.00 | 83 | 1017.0 |
| 20260502063340 | 55 | 140 | 0.0 | 0.0 | 0.00 | 0.00 | 0.00 | 83 | 1017.0 |
| 20260502062313 | 55 | 140 | 0.0 | 0.0 | 0.00 | 0.00 | 0.00 | 82 | 1016.9 |
| 20260502061816 | 55 | 140 | 0.0 | 0.0 | 0.00 | 0.00 | 0.00 | 81 | 1016.9 |
| 20260502061322 | 55 | 314 | 0.0 | 0.0 | 0.00 | 0.00 | 0.00 | 81 | 1016.8 |
| 20260502060825 | 55 | 313 | 0.0 | 0.0 | 0.00 | 0.00 | 0.00 | 81 | 1016.8 |
| 20260502060331 | 56 | 342 | 0.0 | 0.0 | 0.00 | 0.00 | 0.00 | 80 | 1016.8 |
| 20260502055813 | 56 | 342 | 0.0 | 0.0 | 0.00 | 0.00 | 0.00 | 80 | 1016.8 |
| 20260502055313 | 56 | 342 | 0.0 | 0.0 | 0.00 | 0.00 | 0.00 | 79 | 1016.8 |
| 20260502054840 | 56 | 342 | 0.0 | 0.0 | 0.00 | 0.00 | 0.00 | 79 | 1016.7 |
| 20260502054340 | 57 | 342 | 0.0 | 0.0 | 0.00 | 0.00 | 0.00 | 78 | 1016.6 |
| 20260502053849 | 57 | 342 | 0.0 | 0.0 | 0.00 | 0.00 | 0.00 | 78 | 1016.6 |
| 20260502053355 | 57 | 328 | 0.0 | 0.0 | 0.00 | 0.00 | 0.00 | 77 | 1016.6 |
| 20260502052838 | 57 | 321 | 0.0 | 1.0 | 0.00 | 0.00 | 0.00 | 77 | 1016.6 |
| 20260502052344 | 57 | 353 | 0.0 | 1.0 | 0.00 | 0.00 | 0.00 | 77 | 1016.5 |
| 20260502051854 | 58 | 308 | 0.0 | 0.0 | 0.00 | 0.00 | 0.00 | 76 | 1016.6 |
| 20260502051340 | 58 | 333 | 0.0 | 0.0 | 0.00 | 0.00 | 0.00 | 77 | 1016.6 |
| 20260502050849 | 58 | 330 | 0.0 | 0.0 | 0.00 | 0.00 | 0.00 | 76 | 1016.5 |
| 20260502050355 | 58 | 340 | 0.0 | 0.0 | 0.00 | 0.00 | 0.00 | 75 | 1016.4 |
| 20260502045838 | 58 | 313 | 0.0 | 0.0 | 0.00 | 0.00 | 0.00 | 73 | 1016.4 |
| 20260502045344 | 58 | 313 | 0.0 | 1.0 | 0.00 | 0.00 | 0.00 | 71 | 1016.4 |
| 20260502044849 | 59 | 339 | 0.0 | 1.0 | 0.00 | 0.00 | 0.00 | 71 | 1016.4 |
| 20260502044349 | 59 | 335 | 0.0 | 0.0 | 0.00 | 0.00 | 0.00 | 71 | 1016.4 |
| 20260502043838 | 59 | 313 | 0.0 | 0.0 | 0.00 | 0.00 | 0.00 | 71 | 1016.4 |
| 20260502043345 | 59 | 323 | 0.0 | 0.0 | 0.00 | 0.00 | 0.00 | 71 | 1016.4 |
| 20260502042847 | 60 | 323 | 0.0 | 3.0 | 0.00 | 0.00 | 0.00 | 71 | 1016.3 |
| 20260502042334 | 60 | 324 | 0.0 | 3.0 | 0.00 | 0.00 | 0.00 | 70 | 1016.2 |
| 20260502041815 | 60 | 329 | 0.0 | 1.0 | 0.00 | 0.00 | 0.00 | 71 | 1016.1 |
| 20260502041321 | 60 | 304 | 0.0 | 2.0 | 0.00 | 0.00 | 0.00 | 70 | 1016.1 |
| 20260502040823 | 60 | 321 | 0.0 | 3.0 | 0.00 | 0.00 | 0.00 | 70 | 1016.0 |
| 20260502040322 | 61 | 310 | 0.0 | 4.0 | 0.00 | 0.00 | 0.00 | 70 | 1016.0 |
| 20260502035831 | 61 | 304 | 1.0 | 4.0 | 0.00 | 0.00 | 0.00 | 69 | 1015.9 |
| 20260502035330 | 61 | 316 | 0.0 | 0.0 | 0.00 | 0.00 | 0.00 | 70 | 1015.7 |
| 20260502034813 | 62 | 319 | 0.0 | 5.0 | 0.00 | 0.00 | 0.00 | 69 | 1015.5 |
| 20260502034319 | 62 | 309 | 3.0 | 5.0 | 0.00 | 0.00 | 0.00 | 68 | 1015.5 |
| 20260502033822 | 63 | 305 | 0.0 | 5.0 | 0.00 | 0.00 | 0.00 | 68 | 1015.4 |
| 20260502033349 | 63 | 308 | 0.0 | 4.0 | 0.00 | 0.00 | 0.00 | 67 | 1015.4 |
| 20260502032837 | 64 | 347 | 0.0 | 5.0 | 0.00 | 0.00 | 0.00 | 66 | 1015.3 |
| 20260502032343 | 64 | 335 | 0.0 | 7.0 | 0.00 | 0.00 | 0.00 | 66 | 1015.2 |
| 20260502031851 | 65 | 321 | 2.0 | 7.0 | 0.00 | 0.00 | 0.00 | 68 | 1015.2 |
| 20260502031358 | 65 | 322 | 0.0 | 5.0 | 0.00 | 0.00 | 0.00 | 69 | 1015.2 |
| 20260502030840 | 65 | 349 | 1.0 | 5.0 | 0.00 | 0.00 | 0.00 | 68 | 1015.0 |
| 20260502030345 | 66 | 4 | 0.0 | 4.0 | 0.00 | 0.00 | 0.00 | 67 | 1015.0 |
| 20260502025853 | 66 | 9 | 0.0 | 4.0 | 0.00 | 0.00 | 0.00 | 66 | 1015.1 |
| 20260502025359 | 66 | 6 | 0.0 | 3.0 | 0.00 | 0.00 | 0.00 | 65 | 1015.0 |
| 20260502024819 | 67 | 338 | 0.0 | 1.0 | 0.00 | 0.00 | 0.00 | 65 | 1014.9 |
| 20260502024319 | 67 | 17 | 0.0 | 0.0 | 0.00 | 0.00 | 0.00 | 63 | 1014.8 |
| 20260502023822 | 67 | 81 | 0.0 | 3.0 | 0.00 | 0.00 | 0.00 | 63 | 1014.7 |
| 20260502023327 | 68 | 82 | 0.0 | 3.0 | 0.00 | 0.00 | 0.00 | 62 | 1014.7 |
| 20260502022830 | 68 | 85 | 1.0 | 3.0 | 0.00 | 0.00 | 0.00 | 61 | 1014.6 |
| 20260502022336 | 68 | 160 | 0.0 | 1.0 | 0.00 | 0.00 | 0.00 | 61 | 1014.6 |
| 20260502021324 | 69 | 176 | 0.0 | 4.0 | 0.00 | 0.00 | 0.00 | 62 | 1014.5 |
| 20260502020833 | 69 | 176 | 0.0 | 4.0 | 0.00 | 0.00 | 0.00 | 63 | 1014.5 |
| 20260502020313 | 70 | 129 | 0.0 | 2.0 | 0.00 | 0.00 | 0.00 | 62 | 1014.5 |
| 20260502015315 | 70 | 134 | 0.0 | 1.0 | 0.00 | 0.00 | 0.00 | 61 | 1014.4 |
| 20260502014812 | 70 | 134 | 0.0 | 1.0 | 0.00 | 0.00 | 0.00 | 60 | 1014.4 |
| 20260502014331 | 70 | 135 | 0.0 | 1.0 | 0.00 | 0.00 | 0.00 | 60 | 1014.4 |
| 20260502013813 | 70 | 69 | 0.0 | 5.0 | 0.00 | 0.00 | 0.00 | 60 | 1014.4 |
| 20260502013321 | 70 | 108 | 1.0 | 6.0 | 0.00 | 0.00 | 0.00 | 59 | 1014.4 |
| 20260502012822 | 71 | 129 | 3.0 | 5.0 | 0.00 | 0.00 | 0.00 | 58 | 1014.4 |
| 20260502012329 | 71 | 122 | 1.0 | 5.0 | 0.00 | 0.00 | 0.00 | 58 | 1014.4 |
| 20260502011831 | 71 | 120 | 0.0 | 3.0 | 0.00 | 0.00 | 0.00 | 57 | 1014.4 |
| 20260502011330 | 71 | 100 | 1.0 | 3.0 | 0.00 | 0.00 | 0.00 | 57 | 1014.4 |
| 20260502010813 | 72 | 70 | 0.0 | 2.0 | 0.00 | 0.00 | 0.00 | 56 | 1014.3 |
| 20260502010319 | 72 | 76 | 0.0 | 4.0 | 0.00 | 0.00 | 0.00 | 52 | 1014.3 |
| 20260502005822 | 73 | 210 | 0.0 | 1.0 | 0.00 | 0.00 | 0.00 | 53 | 1014.3 |
| 20260502005325 | 73 | 345 | 0.0 | 0.0 | 0.00 | 0.00 | 0.00 | 51 | 1014.3 |
| 20260502004828 | 73 | 34 | 0.0 | 0.0 | 0.00 | 0.00 | 0.00 | 50 | 1014.4 |
| 20260502004334 | 72 | 299 | 0.0 | 5.0 | 0.00 | 0.00 | 0.00 | 49 | 1014.4 |
| 20260502003817 | 73 | 321 | 0.0 | 5.0 | 0.00 | 0.00 | 0.00 | 49 | 1014.4 |
| 20260502003313 | 73 | 154 | 0.0 | 0.0 | 0.00 | 0.00 | 0.00 | 50 | 1014.4 |
| 20260502002815 | 73 | 353 | 0.0 | 0.0 | 0.00 | 0.00 | 0.00 | 50 | 1014.5 |
| 20260502002322 | 72 | 143 | 0.0 | 1.0 | 0.00 | 0.00 | 0.00 | 54 | 1014.4 |
| 20260502001825 | 71 | 229 | 0.0 | 5.0 | 0.00 | 0.00 | 0.00 | 54 | 1014.4 |
| 20260502001331 | 72 | 146 | 2.0 | 5.0 | 0.00 | 0.00 | 0.00 | 53 | 1014.4 |
| 20260502000814 | 72 | 121 | 1.0 | 4.0 | 0.00 | 0.00 | 0.00 | 53 | 1014.4 |
| 20260502000341 | 72 | 121 | 0.0 | 4.0 | 0.00 | 0.00 | 0.00 | 55 | 1014.4 |
| 20260501235842 | 72 | 11 | 0.0 | 4.0 | 0.00 | 0.00 | 0.00 | 55 | 1014.4 |
| 20260501235348 | 71 | 82 | 1.0 | 6.0 | 0.00 | 0.00 | 0.00 | 54 | 1014.4 |
| 20260501234857 | 71 | 94 | 2.0 | 6.0 | 0.00 | 0.00 | 0.00 | 55 | 1014.5 |
| 20260501234336 | 72 | 136 | 1.0 | 3.0 | 0.00 | 0.00 | 0.00 | 52 | 1014.5 |
| 20260501233845 | 72 | 166 | 0.0 | 4.0 | 0.00 | 0.00 | 0.00 | 50 | 1014.5 |
| 20260501233344 | 72 | 304 | 0.0 | 4.0 | 0.00 | 0.00 | 0.00 | 49 | 1014.5 |